createdAt,value
2022-09-21T00:02:24.867Z,57.50
2022-09-21T00:04:55.250Z,57.50
2022-09-21T00:07:25.410Z,58.20
2022-09-21T00:09:55.583Z,57.60
2022-09-21T00:12:25.872Z,57.80
2022-09-21T00:14:56.818Z,57.60
2022-09-21T00:17:27.136Z,57.70
2022-09-21T00:19:58.241Z,57.60
2022-09-21T00:22:28.486Z,57.50
2022-09-21T00:24:58.701Z,57.50
2022-09-21T00:27:31.729Z,57.50
2022-09-21T00:30:04.830Z,57.60
2022-09-21T00:32:35.984Z,57.50
2022-09-21T00:35:09.380Z,57.50
2022-09-21T00:37:39.658Z,57.70
2022-09-21T00:40:10.363Z,57.60
2022-09-21T00:42:40.672Z,57.50
2022-09-21T00:45:22.711Z,57.50
2022-09-21T00:47:55.046Z,57.50
2022-09-21T00:50:27.577Z,57.40
2022-09-21T00:52:59.991Z,57.70
2022-09-21T00:55:43.589Z,57.50
2022-09-21T00:58:19.572Z,57.50
2022-09-21T01:00:49.838Z,57.50
2022-09-21T01:03:20.026Z,57.40
2022-09-21T01:05:50.710Z,57.50
2022-09-21T01:08:31.120Z,57.50
2022-09-21T01:11:35.951Z,57.50
2022-09-21T01:14:18.055Z,57.50
2022-09-21T01:16:52.236Z,57.50
2022-09-21T01:19:44.636Z,57.50
2022-09-21T01:22:30.728Z,57.60
2022-09-21T01:25:00.849Z,57.50
2022-09-21T01:27:41.436Z,57.50
2022-09-21T01:30:18.286Z,57.50
2022-09-21T01:32:51.155Z,57.40
2022-09-21T01:35:33.401Z,57.40
2022-09-21T01:38:40.688Z,57.30
2022-09-21T01:41:13.726Z,57.50
2022-09-21T01:43:50.245Z,57.40
2022-09-21T01:46:23.545Z,57.40
2022-09-21T01:48:58.437Z,57.50
2022-09-21T01:51:30.968Z,57.40
2022-09-21T01:54:21.751Z,57.40
2022-09-21T01:57:14.814Z,57.30
2022-09-21T01:59:50.925Z,57.30
2022-09-21T02:02:34.033Z,57.40
2022-09-21T02:05:06.632Z,57.30
2022-09-21T02:07:38.023Z,57.30
2022-09-21T02:10:12.634Z,57.20
2022-09-21T02:12:43.943Z,57.30
2022-09-21T02:15:14.281Z,57.10
2022-09-21T02:18:07.865Z,57.20
2022-09-21T02:20:56.079Z,57.00
2022-09-21T02:23:52.106Z,57.10
2022-09-21T02:26:37.716Z,57.10
2022-09-21T02:29:35.109Z,57.10
2022-09-21T02:32:14.815Z,57.10
2022-09-21T02:34:59.281Z,57.20
2022-09-21T02:38:10.120Z,57.20
2022-09-21T02:41:21.622Z,57.10
2022-09-21T02:44:03.656Z,57.00
2022-09-21T02:46:45.381Z,57.10
2022-09-21T02:49:23.937Z,57.10
2022-09-21T02:51:56.550Z,57.10
2022-09-21T02:54:33.366Z,57.20
2022-09-21T02:57:05.273Z,57.10
2022-09-21T02:59:36.119Z,57.10
2022-09-21T03:02:08.856Z,57.10
2022-09-21T03:04:39.344Z,57.10
2022-09-21T03:07:10.737Z,57.10
2022-09-21T03:09:41.133Z,57.10
2022-09-21T03:12:11.462Z,57.10
2022-09-21T03:14:41.637Z,57.20
2022-09-21T03:17:11.843Z,57.20
2022-09-21T03:19:42.307Z,57.20
2022-09-21T03:22:12.511Z,57.20
2022-09-21T03:24:48.680Z,57.20
2022-09-21T03:27:21.017Z,57.20
2022-09-21T03:29:51.460Z,57.20
2022-09-21T03:32:21.592Z,57.20
2022-09-21T03:34:52.284Z,57.50
2022-09-21T03:37:22.395Z,57.30
2022-09-21T03:39:52.587Z,57.20
2022-09-21T03:42:22.681Z,57.80
2022-09-21T03:44:52.876Z,57.20
2022-09-21T03:47:23.230Z,57.20
2022-09-21T03:49:53.370Z,57.20
2022-09-21T03:52:23.504Z,57.20
2022-09-21T03:54:53.668Z,57.20
2022-09-21T03:57:24.122Z,57.20
2022-09-21T03:59:55.869Z,57.10
2022-09-21T04:02:26.077Z,57.20
2022-09-21T04:04:56.265Z,57.20
2022-09-21T04:07:26.406Z,57.20
2022-09-21T04:09:56.826Z,57.20
2022-09-21T04:12:27.031Z,57.20
2022-09-21T04:14:57.605Z,57.10
2022-09-21T04:17:27.775Z,57.10
2022-09-21T04:19:58.367Z,57.20
2022-09-21T04:22:28.707Z,57.20
2022-09-21T04:24:58.791Z,57.20
2022-09-21T04:27:28.975Z,57.10
2022-09-21T04:29:59.099Z,57.20
2022-09-21T04:32:29.720Z,57.20
2022-09-21T04:34:59.943Z,57.30
2022-09-21T04:37:30.090Z,57.30
2022-09-21T04:40:00.568Z,57.30
2022-09-21T04:42:30.936Z,57.40
2022-09-21T04:45:01.073Z,57.40
2022-09-21T04:47:33.404Z,57.40
2022-09-21T04:50:03.537Z,57.30
2022-09-21T04:52:33.744Z,57.30
2022-09-21T04:55:03.860Z,57.30
2022-09-21T04:57:34.058Z,57.30
2022-09-21T05:00:06.519Z,57.30
2022-09-21T05:02:36.725Z,57.30
2022-09-21T05:05:07.617Z,57.30
2022-09-21T05:07:37.983Z,57.30
2022-09-21T05:10:09.307Z,57.30
2022-09-21T05:12:41.129Z,57.30
2022-09-21T05:15:15.673Z,57.30
2022-09-21T05:17:46.228Z,57.20
2022-09-21T05:20:17.330Z,57.20
2022-09-21T05:22:47.515Z,57.20
2022-09-21T05:25:17.746Z,57.10
2022-09-21T05:27:48.083Z,57.20
2022-09-21T05:30:18.632Z,57.10
2022-09-21T05:33:03.612Z,57.10
2022-09-21T05:36:02.699Z,57.00
2022-09-21T05:38:33.238Z,57.10
2022-09-21T05:41:04.006Z,57.10
2022-09-21T05:43:34.416Z,57.00
2022-09-21T05:46:20.903Z,57.00
2022-09-21T05:49:05.094Z,57.00
2022-09-21T05:51:50.657Z,57.00
2022-09-21T05:54:38.892Z,57.00
2022-09-21T05:57:34.120Z,56.90
2022-09-21T06:00:22.906Z,56.80
2022-09-21T06:03:17.843Z,56.90
2022-09-21T06:05:48.173Z,56.90
2022-09-21T06:08:25.389Z,57.00
2022-09-21T06:10:56.468Z,56.90
2022-09-21T06:13:26.694Z,56.90
2022-09-21T06:15:56.912Z,56.90
2022-09-21T06:18:27.279Z,56.90
2022-09-21T06:20:57.601Z,56.90
2022-09-21T06:23:27.829Z,56.90
2022-09-21T06:25:58.785Z,56.90
2022-09-21T06:28:29.905Z,56.90
2022-09-21T06:31:01.383Z,56.80
2022-09-21T06:33:33.286Z,56.80
2022-09-21T06:36:03.615Z,56.90
2022-09-21T06:38:34.017Z,56.90
2022-09-21T06:41:07.873Z,56.80
2022-09-21T06:43:38.088Z,56.90
2022-09-21T06:46:08.541Z,56.90
2022-09-21T06:48:38.960Z,56.80
2022-09-21T06:51:09.683Z,56.80
2022-09-21T06:53:39.844Z,57.50
2022-09-21T06:56:12.473Z,57.40
2022-09-21T06:58:42.899Z,56.80
2022-09-21T07:01:16.681Z,56.80
2022-09-21T07:03:47.489Z,56.90
2022-09-21T07:06:17.643Z,56.80
2022-09-21T07:11:41.779Z,56.80
2022-09-21T07:14:12.186Z,56.90
2022-09-21T07:16:42.798Z,56.90
2022-09-21T07:19:13.092Z,56.90
2022-09-21T07:21:43.646Z,56.80
2022-09-21T07:24:13.988Z,56.80
2022-09-21T07:26:44.353Z,56.80
2022-09-21T07:29:15.034Z,57.60
2022-09-21T07:31:48.322Z,56.90
2022-09-21T07:34:18.781Z,56.90
2022-09-21T07:36:49.040Z,56.80
2022-09-21T07:39:19.214Z,56.90
2022-09-21T07:41:50.713Z,57.00
2022-09-21T07:44:22.171Z,56.90
2022-09-21T07:46:52.553Z,56.80
2022-09-21T07:49:22.719Z,56.90
2022-09-21T07:51:52.903Z,56.90
2022-09-21T07:54:23.275Z,56.80
2022-09-21T07:57:11.457Z,56.80
2022-09-21T07:59:41.810Z,56.80
2022-09-21T08:02:12.173Z,56.70
2022-09-21T08:04:42.467Z,56.80
2022-09-21T08:07:12.665Z,56.70
2022-09-21T08:09:43.667Z,57.30
2022-09-21T08:12:13.987Z,56.60
2022-09-21T08:14:44.571Z,56.50
2022-09-21T08:17:14.934Z,56.50
2022-09-21T08:19:45.220Z,56.50
2022-09-21T08:22:16.059Z,56.40
2022-09-21T08:24:46.352Z,56.40
2022-09-21T08:27:16.555Z,56.40
2022-09-21T08:29:47.762Z,56.40
2022-09-21T08:32:39.492Z,56.30
2022-09-21T08:35:09.202Z,56.30
2022-09-21T08:37:39.960Z,56.40
2022-09-21T08:40:12.019Z,56.40
2022-09-21T08:43:08.462Z,56.50
2022-09-21T08:45:46.786Z,56.50
2022-09-21T08:48:30.884Z,56.50
2022-09-21T08:51:07.730Z,56.50
2022-09-21T08:53:45.974Z,56.60
2022-09-21T08:56:17.861Z,56.70
2022-09-21T08:58:47.987Z,56.70
2022-09-21T09:01:38.174Z,56.70
2022-09-21T09:04:37.243Z,56.70
2022-09-21T09:07:28.516Z,56.70
2022-09-21T09:10:06.568Z,56.70
2022-09-21T09:12:39.475Z,56.80
2022-09-21T09:15:41.168Z,56.80
2022-09-21T09:18:14.507Z,56.70
2022-09-21T09:20:50.428Z,56.80
2022-09-21T09:23:37.212Z,56.70
2022-09-21T09:26:38.712Z,56.70
2022-09-21T09:29:45.324Z,56.80
2022-09-21T09:32:20.329Z,56.70
2022-09-21T09:35:07.769Z,57.00
2022-09-21T09:37:42.687Z,56.90
2022-09-21T09:40:16.598Z,56.90
2022-09-21T09:43:27.454Z,56.90
2022-09-21T09:46:36.487Z,56.80
2022-09-21T09:49:27.705Z,56.90
2022-09-21T09:51:58.023Z,56.90
2022-09-21T09:54:32.127Z,57.00
2022-09-21T09:57:05.209Z,57.00
2022-09-21T09:59:43.836Z,57.00
2022-09-21T10:02:24.953Z,56.90
2022-09-21T10:05:01.864Z,57.00
2022-09-21T10:07:42.363Z,57.00
2022-09-21T10:10:43.467Z,56.90
2022-09-21T10:13:25.655Z,56.90
2022-09-21T10:15:59.942Z,57.00
2022-09-21T10:18:42.387Z,57.00
2022-09-21T10:21:24.037Z,57.00
2022-09-21T10:24:06.526Z,57.00
2022-09-21T10:26:56.128Z,57.00
2022-09-21T10:29:27.019Z,57.00
2022-09-21T10:32:13.705Z,57.10
2022-09-21T10:35:15.447Z,57.60
2022-09-21T10:37:50.345Z,57.00
2022-09-21T10:40:23.660Z,57.10
2022-09-21T10:43:02.435Z,57.10
2022-09-21T10:45:36.987Z,57.00
2022-09-21T10:48:23.159Z,57.00
2022-09-21T10:50:55.369Z,57.00
2022-09-21T10:53:32.514Z,57.00
2022-09-21T10:56:20.385Z,57.00
2022-09-21T10:59:13.842Z,57.00
2022-09-21T11:01:50.306Z,57.00
2022-09-21T11:04:51.977Z,57.00
2022-09-21T11:07:37.229Z,57.00
2022-09-21T11:10:38.077Z,57.00
2022-09-21T11:13:28.254Z,57.00
2022-09-21T11:16:16.422Z,57.00
2022-09-21T11:19:07.707Z,57.00
2022-09-21T11:21:50.003Z,57.00
2022-09-21T11:24:45.666Z,57.50
2022-09-21T11:27:33.770Z,57.00
2022-09-21T11:30:12.814Z,57.00
2022-09-21T11:32:58.605Z,57.00
2022-09-21T11:35:59.787Z,57.00
2022-09-21T11:38:51.492Z,57.00
2022-09-21T11:41:21.927Z,57.00
2022-09-21T11:44:19.150Z,57.00
2022-09-21T11:47:18.779Z,57.00
2022-09-21T11:50:29.256Z,57.00
2022-09-21T11:53:16.967Z,57.10
2022-09-21T11:56:20.691Z,57.10
2022-09-21T11:59:09.133Z,57.10
2022-09-21T12:01:39.354Z,57.10
2022-09-21T12:04:38.509Z,57.20
2022-09-21T12:07:42.500Z,57.10
2022-09-21T12:10:18.400Z,57.10
2022-09-21T12:13:07.645Z,57.20
2022-09-21T12:15:48.749Z,57.40
2022-09-21T12:18:34.458Z,57.60
2022-09-21T12:21:24.817Z,57.60
2022-09-21T12:24:07.227Z,57.60
2022-09-21T12:26:51.906Z,57.50
2022-09-21T12:29:27.638Z,57.70
2022-09-21T12:32:10.025Z,57.70
2022-09-21T12:34:53.281Z,57.70
2022-09-21T12:37:58.590Z,57.70
2022-09-21T12:40:40.453Z,57.70
2022-09-21T12:43:29.197Z,57.80
2022-09-21T12:46:10.488Z,58.40
2022-09-21T12:48:43.575Z,57.80
2022-09-21T12:51:28.565Z,57.90
2022-09-21T12:54:02.462Z,57.80
2022-09-21T12:57:23.603Z,57.80
2022-09-21T13:00:11.888Z,57.90
2022-09-21T13:05:41.159Z,58.10
2022-09-21T13:08:38.294Z,57.90
2022-09-21T13:11:09.970Z,58.00
2022-09-21T13:13:55.030Z,58.10
2022-09-21T13:16:43.324Z,58.10
2022-09-21T13:19:16.418Z,58.10
2022-09-21T13:21:47.015Z,58.10
2022-09-21T13:24:33.018Z,58.10
2022-09-21T13:27:08.205Z,58.00
2022-09-21T13:29:44.577Z,58.10
2022-09-21T13:32:15.495Z,58.70
2022-09-21T13:34:48.810Z,58.10
2022-09-21T13:37:22.060Z,58.10
2022-09-21T13:39:58.458Z,58.10
2022-09-21T13:42:37.935Z,58.10
2022-09-21T13:45:08.434Z,58.10
2022-09-21T13:47:41.371Z,58.10
2022-09-21T13:50:30.809Z,58.00
2022-09-21T13:53:10.869Z,58.00
2022-09-21T13:55:50.777Z,58.20
2022-09-21T13:58:26.864Z,58.10
2022-09-21T14:01:04.165Z,58.10
2022-09-21T14:03:39.953Z,58.10
2022-09-21T14:06:37.513Z,58.10
2022-09-21T14:09:11.307Z,58.00
2022-09-21T14:11:43.387Z,58.20
2022-09-21T14:14:20.121Z,58.10
2022-09-21T14:16:55.310Z,58.70
2022-09-21T14:19:25.403Z,58.10
2022-09-21T14:22:08.996Z,58.10
2022-09-21T14:24:45.387Z,58.10
2022-09-21T14:27:25.297Z,58.80
2022-09-21T14:30:08.070Z,58.00
2022-09-21T14:33:09.119Z,58.10
2022-09-21T14:35:50.498Z,58.10
2022-09-21T14:38:53.694Z,58.10
2022-09-21T14:41:27.074Z,58.00
2022-09-21T14:44:00.212Z,58.20
2022-09-21T14:46:50.837Z,58.20
2022-09-21T14:49:47.965Z,58.10
2022-09-21T14:52:33.458Z,58.00
2022-09-21T14:55:26.040Z,58.20
2022-09-21T14:58:15.909Z,58.20
2022-09-21T15:00:56.183Z,58.20
2022-09-21T15:03:40.568Z,58.40
2022-09-21T15:07:09.689Z,58.20
2022-09-21T15:10:06.800Z,58.20
2022-09-21T15:12:55.068Z,58.40
2022-09-21T15:15:34.523Z,58.10
2022-09-21T15:18:19.495Z,58.40
2022-09-21T15:21:28.466Z,58.40
2022-09-21T15:24:01.847Z,58.40
2022-09-21T15:26:36.699Z,58.30
2022-09-21T15:29:13.320Z,58.30
2022-09-21T15:31:45.193Z,58.40
2022-09-21T15:34:17.548Z,58.30
2022-09-21T15:36:52.518Z,58.40
2022-09-21T15:39:32.271Z,58.30
2022-09-21T15:42:11.532Z,58.40
2022-09-21T15:44:42.767Z,58.20
2022-09-21T15:47:15.298Z,58.10
2022-09-21T15:49:47.291Z,58.20
2022-09-21T15:52:33.161Z,58.10
2022-09-21T15:55:13.288Z,58.00
2022-09-21T15:57:45.550Z,58.10
2022-09-21T16:00:18.931Z,58.10
2022-09-21T16:03:05.856Z,58.00
2022-09-21T16:05:49.163Z,58.00
2022-09-21T16:08:36.777Z,58.00
2022-09-21T16:11:31.416Z,57.90
2022-09-21T16:14:37.085Z,58.00
2022-09-21T16:17:19.210Z,58.00
2022-09-21T16:20:01.484Z,58.00
2022-09-21T16:22:45.174Z,58.00
2022-09-21T16:25:36.213Z,57.90
2022-09-21T16:28:18.968Z,57.90
2022-09-21T16:30:57.888Z,57.80
2022-09-21T16:33:40.331Z,57.80
2022-09-21T16:36:19.351Z,57.90
2022-09-21T16:38:51.612Z,57.80
2022-09-21T16:41:23.020Z,57.90
2022-09-21T16:43:53.785Z,58.20
2022-09-21T16:46:24.866Z,57.80
2022-09-21T16:48:58.316Z,57.80
2022-09-21T16:51:30.141Z,57.80
2022-09-21T16:54:01.384Z,57.80
2022-09-21T16:56:31.717Z,57.80
2022-09-21T16:59:05.413Z,57.80
2022-09-21T17:01:35.711Z,57.80
2022-09-21T17:04:05.967Z,57.70
2022-09-21T17:06:39.817Z,57.70
2022-09-21T17:09:33.723Z,57.70
2022-09-21T17:12:05.977Z,57.50
2022-09-21T17:14:39.958Z,57.70
2022-09-21T17:17:28.334Z,57.60
2022-09-21T17:19:58.664Z,57.70
2022-09-21T17:22:30.652Z,57.60
2022-09-21T17:25:01.027Z,57.70
2022-09-21T17:27:31.198Z,57.70
2022-09-21T17:30:04.980Z,57.50
2022-09-21T17:32:38.739Z,57.60
2022-09-21T17:35:18.989Z,57.60
2022-09-21T17:37:49.316Z,57.50
2022-09-21T17:40:20.094Z,57.60
2022-09-21T17:42:50.568Z,57.50
2022-09-21T17:45:40.409Z,57.50
2022-09-21T17:48:20.261Z,57.50
2022-09-21T17:50:51.723Z,57.50
2022-09-21T17:53:40.388Z,57.50
2022-09-21T17:56:42.428Z,57.50
2022-09-21T17:59:31.880Z,57.30
2022-09-21T18:02:05.633Z,57.50
2022-09-21T18:04:39.038Z,57.50
2022-09-21T18:07:12.019Z,57.50
2022-09-21T18:09:42.359Z,57.50
2022-09-21T18:12:48.839Z,57.40
2022-09-21T18:15:49.763Z,57.40
2022-09-21T18:18:31.650Z,57.30
2022-09-21T18:21:06.428Z,57.40
2022-09-21T18:24:08.729Z,57.50
2022-09-21T18:26:40.847Z,57.40
2022-09-21T18:29:40.070Z,57.50
2022-09-21T18:32:50.898Z,57.40
2022-09-21T18:35:27.350Z,57.40
2022-09-21T18:38:15.614Z,57.30
2022-09-21T18:41:06.618Z,57.50
2022-09-21T18:43:54.778Z,57.30
2022-09-21T18:46:39.890Z,57.40
2022-09-21T18:49:34.419Z,57.40
2022-09-21T18:52:23.580Z,57.20
2022-09-21T18:54:54.583Z,57.30
2022-09-21T18:57:25.349Z,57.30
2022-09-21T18:59:55.770Z,57.30
2022-09-21T19:02:26.528Z,57.20
2022-09-21T19:04:59.634Z,57.20
2022-09-21T19:07:58.558Z,57.20
2022-09-21T19:10:44.710Z,57.00
2022-09-21T19:13:52.574Z,57.20
2022-09-21T19:16:45.570Z,57.10
2022-09-21T19:19:38.635Z,57.20
2022-09-21T19:22:26.132Z,57.10
2022-09-21T19:25:08.173Z,57.20
2022-09-21T19:27:42.823Z,57.20
2022-09-21T19:30:15.698Z,57.20
2022-09-21T19:32:59.775Z,57.20
2022-09-21T19:35:31.549Z,57.10
2022-09-21T19:38:04.489Z,57.20
2022-09-21T19:40:41.081Z,57.20
2022-09-21T19:43:33.161Z,57.20
2022-09-21T19:46:47.631Z,57.20
2022-09-21T19:49:20.692Z,57.10
2022-09-21T19:51:57.587Z,57.20
2022-09-21T19:54:46.518Z,57.30
2022-09-21T19:57:42.154Z,57.20
2022-09-21T20:00:17.328Z,57.20
2022-09-21T20:02:50.516Z,57.80
2022-09-21T20:05:25.801Z,57.20
2022-09-21T20:08:06.213Z,57.20
2022-09-21T20:11:12.062Z,57.10
2022-09-21T20:13:54.924Z,57.10
2022-09-21T20:16:52.330Z,57.20
2022-09-21T20:19:46.445Z,57.10
2022-09-21T20:22:29.843Z,57.30
2022-09-21T20:25:12.684Z,57.20
2022-09-21T20:27:55.194Z,57.20
2022-09-21T20:30:28.219Z,57.20
2022-09-21T20:33:04.933Z,57.30
2022-09-21T20:35:36.362Z,57.20
2022-09-21T20:38:06.592Z,57.20
2022-09-21T20:40:37.583Z,57.20
2022-09-21T20:43:09.537Z,57.20
2022-09-21T20:45:42.420Z,57.20
2022-09-21T20:48:15.191Z,57.20
2022-09-21T20:50:48.235Z,57.20
2022-09-21T20:53:19.183Z,57.20
2022-09-21T20:56:00.326Z,57.30
2022-09-21T20:58:31.687Z,57.10
2022-09-21T21:01:09.878Z,57.30
2022-09-21T21:03:40.221Z,57.20
2022-09-21T21:06:16.079Z,57.20
2022-09-21T21:08:46.920Z,57.20
2022-09-21T21:11:17.177Z,57.20
2022-09-21T21:13:48.291Z,57.20
2022-09-21T21:16:18.913Z,57.20
2022-09-21T21:18:49.235Z,57.20
2022-09-21T21:21:19.692Z,57.20
2022-09-21T21:24:11.862Z,57.10
2022-09-21T21:27:01.182Z,57.20
2022-09-21T21:29:32.791Z,57.20
2022-09-21T21:32:03.357Z,57.20
2022-09-21T21:34:33.601Z,57.30
2022-09-21T21:37:03.875Z,57.20
2022-09-21T21:39:34.225Z,57.20
2022-09-21T21:42:04.450Z,57.20
2022-09-21T21:44:34.678Z,57.20
2022-09-21T21:47:21.355Z,57.20
2022-09-21T21:49:55.337Z,57.20
2022-09-21T21:52:25.653Z,57.20
2022-09-21T21:54:55.934Z,57.30
2022-09-21T21:57:26.219Z,57.20
2022-09-21T21:59:56.407Z,57.20
2022-09-21T22:02:26.695Z,57.30
2022-09-21T22:04:56.878Z,57.20
2022-09-21T22:07:27.140Z,57.30
2022-09-21T22:09:57.610Z,57.20
2022-09-21T22:12:27.781Z,57.30
2022-09-21T22:14:57.904Z,57.30
2022-09-21T22:17:28.297Z,57.20
2022-09-21T22:19:58.624Z,57.30
2022-09-21T22:22:28.894Z,57.20
2022-09-21T22:24:59.132Z,57.30
2022-09-21T22:27:29.266Z,57.30
2022-09-21T22:29:59.459Z,57.30
2022-09-21T22:32:29.720Z,57.30
2022-09-21T22:35:00.155Z,57.30
2022-09-21T22:37:30.598Z,57.30
2022-09-21T22:40:01.137Z,57.30
2022-09-21T22:42:31.632Z,57.30
2022-09-21T22:45:01.963Z,57.40
2022-09-21T22:47:32.870Z,57.50
2022-09-21T22:50:03.373Z,57.50
2022-09-21T22:52:33.871Z,57.60
2022-09-21T22:55:04.313Z,57.60
2022-09-21T22:57:34.807Z,58.40
2022-09-21T23:00:07.030Z,57.70
2022-09-21T23:02:37.263Z,57.80
2022-09-21T23:05:07.875Z,57.90
2022-09-21T23:07:38.613Z,57.80
2022-09-21T23:10:09.609Z,57.90
2022-09-21T23:12:40.196Z,57.90
2022-09-21T23:15:11.504Z,57.90
2022-09-21T23:17:41.695Z,57.90
2022-09-21T23:20:13.098Z,57.90
2022-09-21T23:22:43.440Z,57.90
2022-09-21T23:25:13.739Z,57.90
2022-09-21T23:27:43.917Z,57.90
2022-09-21T23:30:14.343Z,57.90
2022-09-21T23:32:45.040Z,57.80
2022-09-21T23:35:15.612Z,57.80
2022-09-21T23:37:45.861Z,57.80
2022-09-21T23:40:16.178Z,57.80
2022-09-21T23:42:46.423Z,57.90
2022-09-21T23:45:16.686Z,58.00
2022-09-21T23:47:46.995Z,58.30
2022-09-21T23:50:17.589Z,58.10
2022-09-21T23:52:47.738Z,58.20
2022-09-21T23:55:17.973Z,58.10
2022-09-21T23:57:48.202Z,58.10
